Latest Weather Observations for Rowley Shoals

IDW60801

Issued at 12:32 am WST Thursday 3 September 2015 (issued every 30 minutes, with the page automatically refreshed every 10 minutes)

About weather observations | Map of weather stations | Latest weather observations for WA | Other Formats
Station Details ID: 200713 Name: ROWLEY SHOALS Lat: -17.52 Lon: 118.95 Height: 0.0 m
Data from the previous 72 hours. | See also: Recent months at Rowley Shoals
Date/Time
WST
Temp
°C
App
Temp
°C
Dew
Point
Rel
Hum
%
Delta-T
°C
Wind Press
QNH
hPa
Press
MSL
hPa
Rain
since 9 am
mm
Dir
 
Spd
km/h
Gust
km/h
Spd
kts
Gust
kts
03/12:30am - - - - - W 15 19 8 10 1016.3 1016.3 -
03/12:00am - - - - - W 11 15 6 8 1016.6 1016.5 -
 
Date/Time
WST
Temp
°C
App
Temp
°C
Dew
Point
Rel
Hum
%
Delta-T
°C
Wind Press
QNH
hPa
Press
MSL
hPa
Rain
since 9 am
mm
Dir
 
Spd
km/h
Gust
km/h
Spd
kts
Gust
kts
02/11:30pm - - - - - W 9 11 5 6 1016.7 1016.7 -
02/11:00pm - - - - - W 6 9 3 5 1016.6 1016.6 -
02/10:30pm - - - - - WNW 6 11 3 6 1016.6 1016.6 -
02/10:00pm - - - - - WNW 6 7 3 4 1016.5 1016.5 -
02/09:30pm - - - - - WNW 7 11 4 6 1016.5 1016.5 -
02/09:00pm - - - - - W 7 11 4 6 1016.5 1016.5 -
02/08:30pm - - - - - W 9 13 5 7 1016.5 1016.5 -
02/08:00pm - - - - - W 9 11 5 6 1016.3 1016.3 -
02/07:30pm - - - - - WSW 9 11 5 6 1016.2 1016.2 -
02/07:00pm - - - - - W 6 7 3 4 1015.7 1015.9 -
02/06:30pm - - - - - WSW 9 11 5 6 1015.6 1015.6 -
02/06:00pm - - - - - WSW 9 15 5 8 1015.3 1015.4 -
02/05:30pm - - - - - WSW 9 13 5 7 1015.1 1015.1 -
02/05:00pm - - - - - WSW 9 11 5 6 1015.0 1015.0 -
02/04:30pm - - - - - SW 9 13 5 7 1014.8 1014.8 -
02/04:00pm - - - - - WSW 9 13 5 7 1014.6 1014.7 -
02/03:30pm - - - - - SW 9 13 5 7 1014.4 1014.4 -
02/03:00pm - - - - - SW 7 11 4 6 1014.5 1014.5 -
02/02:30pm - - - - - SW 9 13 5 7 1014.6 1014.6 -
02/02:00pm - - - - - SW 9 11 5 6 1014.7 1014.7 -
02/01:30pm - - - - - SW 7 11 4 6 1014.7 1014.7 -
02/01:00pm - - - - - SSW 9 11 5 6 1014.7 1014.7 -
02/12:30pm - - - - - SSW 7 11 4 6 1015.0 1015.0 -
02/12:00pm - - - - - SSW 9 11 5 6 1015.5 1015.3 -
02/11:30am - - - - - S 9 13 5 7 1016.0 1016.0 -
02/11:00am - - - - - S 9 13 5 7 1016.4 1016.3 -
02/10:30am - - - - - S 13 17 7 9 1016.8 1016.8 -
02/10:00am - - - - - S 13 19 7 10 1017.0 1016.9 -
02/09:30am - - - - - S 13 17 7 9 1016.8 1016.8 -
02/09:00am - - - - - S 15 20 8 11 1016.4 1016.5 -
02/08:30am - - - - - S 17 20 9 11 1016.2 1016.2 -
02/08:00am - - - - - S 17 20 9 11 1015.8 1015.9 -
02/07:30am - - - - - S 17 22 9 12 1015.5 1015.5 -
02/07:00am - - - - - S 17 20 9 11 1015.2 1015.3 -
02/06:30am - - - - - S 17 20 9 11 1014.9 1014.9 -
02/06:00am - - - - - SSW 17 20 9 11 1014.6 1014.6 -
02/05:30am - - - - - SSW 19 20 10 11 1014.2 1014.2 -
02/05:00am - - - - - SSW 19 24 10 13 1014.0 1013.9 -
02/04:30am - - - - - SSW 20 24 11 13 1013.7 1013.7 -
02/04:00am - - - - - SW 20 24 11 13 1013.7 1013.7 -
02/03:30am - - - - - SW 22 28 12 15 1013.8 1013.8 -
02/03:00am - - - - - SW 22 28 12 15 1014.0 1013.9 -
02/02:30am - - - - - SW 26 30 14 16 1013.8 1013.8 -
02/02:00am - - - - - SW 26 30 14 16 1013.9 1013.8 -
02/01:30am - - - - - WSW 28 32 15 17 1014.0 1014.0 -
02/01:00am - - - - - WSW 28 32 15 17 1014.3 1014.1 -
02/12:30am - - - - - WSW 26 30 14 16 1014.5 1014.5 -
02/12:00am - - - - - W 28 32 15 17 1014.7 1014.6 -
 
Date/Time
WST
Temp
°C
App
Temp
°C
Dew
Point
Rel
Hum
%
Delta-T
°C
Wind Press
QNH
hPa
Press
MSL
hPa
Rain
since 9 am
mm
Dir
 
Spd
km/h
Gust
km/h
Spd
kts
Gust
kts
01/11:30pm - - - - - W 26 30 14 16 1015.0 1015.0 -
01/11:00pm - - - - - W 22 26 12 14 1015.2 1015.1 -
01/10:30pm - - - - - W 20 26 11 14 1015.2 1015.2 -
01/10:00pm - - - - - W 22 26 12 14 1015.1 1015.1 -
01/09:30pm - - - - - W 20 24 11 13 1015.2 1015.2 -
01/09:00pm - - - - - W 22 26 12 14 1015.1 1015.2 -
01/08:30pm - - - - - W 20 24 11 13 1015.0 1015.0 -
01/08:00pm - - - - - W 22 28 12 15 1014.9 1014.9 -
01/07:30pm - - - - - W 22 26 12 14 1014.6 1014.6 -
01/07:00pm - - - - - W 24 26 13 14 1014.3 1014.4 -
01/06:30pm - - - - - W 24 28 13 15 1014.0 1014.0 -
01/06:00pm - - - - - W 24 32 13 17 1013.7 1013.7 -
01/05:30pm - - - - - W 24 30 13 16 1013.5 1013.5 -
01/05:00pm - - - - - W 24 30 13 16 1013.5 1013.5 -
01/04:30pm - - - - - W 24 28 13 15 1013.3 1013.3 -
01/04:00pm - - - - - W 24 26 13 14 1013.2 1013.2 -
01/03:30pm - - - - - WNW 22 26 12 14 1013.1 1013.1 -
01/03:00pm - - - - - W 22 28 12 15 1013.2 1013.1 -
01/02:30pm - - - - - W 22 26 12 14 1013.2 1013.2 -
01/02:00pm - - - - - W 22 26 12 14 1013.5 1013.4 -
01/01:30pm - - - - - W 20 24 11 13 1013.8 1013.8 -
01/01:00pm - - - - - W 19 22 10 12 1014.0 1014.0 -
01/12:30pm - - - - - W 20 24 11 13 1014.4 1014.4 -
01/12:00pm - - - - - W 19 20 10 11 1014.6 1014.5 -
01/11:30am - - - - - W 19 22 10 12 1014.9 1014.9 -
01/11:00am - - - - - W 19 24 10 13 1015.2 1015.2 -
01/10:30am - - - - - WSW 17 20 9 11 1015.4 1015.4 -
01/10:00am - - - - - SW 20 24 11 13 1015.6 1015.6 -
01/09:30am - - - - - SW 20 26 11 14 1015.7 1015.7 -
01/09:00am - - - - - SW 22 24 12 13 1015.6 1015.6 -
01/08:30am - - - - - SW 20 26 11 14 1015.6 1015.6 -
01/08:00am - - - - - SW 22 26 12 14 1015.3 1015.4 -
01/07:30am - - - - - SW 24 28 13 15 1015.2 1015.2 -
01/07:00am - - - - - SW 24 28 13 15 1014.8 1014.9 -
01/06:30am - - - - - SW 26 30 14 16 1014.4 1014.4 -
01/06:00am - - - - - SW 26 30 14 16 1014.0 1014.1 -
01/05:30am - - - - - SW 28 32 15 17 1013.8 1013.8 -
01/05:00am - - - - - SW 30 35 16 19 1013.6 1013.6 -
01/04:30am - - - - - SW 33 39 18 21 1013.3 1013.3 -
01/04:00am - - - - - SW 33 39 18 21 1013.3 1013.3 -
01/03:30am - - - - - SW 32 37 17 20 1013.4 1013.4 -
01/03:00am - - - - - SW 28 32 15 17 1013.6 1013.6 -
01/02:30am - - - - - WSW 28 32 15 17 1013.7 1013.7 -
01/02:00am - - - - - WSW 26 30 14 16 1013.8 1013.8 -
01/01:30am - - - - - WSW 24 28 13 15 1013.9 1013.9 -
01/01:00am - - - - - WSW 24 28 13 15 1014.2 1014.2 -
01/12:30am - - - - - WSW 24 30 13 16 1014.6 1014.6 -
01/12:00am - - - - - WSW 24 28 13 15 1014.9 1014.8 -
 
Date/Time
WST
Temp
°C
App
Temp
°C
Dew
Point
Rel
Hum
%
Delta-T
°C
Wind Press
QNH
hPa
Press
MSL
hPa
Rain
since 9 am
mm
Dir
 
Spd
km/h
Gust
km/h
Spd
kts
Gust
kts
31/11:30pm - - - - - WSW 22 28 12 15 1015.1 1015.1 -
31/11:00pm - - - - - W 22 28 12 15 1015.3 1015.3 -
31/10:30pm - - - - - W 22 28 12 15 1015.5 1015.5 -
31/10:00pm - - - - - WSW 22 26 12 14 1015.5 1015.6 -
31/09:30pm - - - - - W 22 28 12 15 1015.7 1015.7 -
31/09:00pm - - - - - W 22 26 12 14 1015.8 1015.8 -
31/08:30pm - - - - - W 22 26 12 14 1015.6 1015.6 -
31/08:00pm - - - - - W 22 26 12 14 1015.5 1015.5 -
31/07:30pm - - - - - W 22 26 12 14 1015.1 1015.1 -
31/07:00pm - - - - - W 22 26 12 14 1014.9 1015.0 -
31/06:30pm - - - - - W 22 28 12 15 1014.6 1014.6 -
31/06:00pm - - - - - WSW 24 28 13 15 1014.3 1014.4 -
31/05:30pm - - - - - WSW 24 28 13 15 1014.3 1014.3 -
31/05:00pm - - - - - WSW 22 28 12 15 1014.2 1014.2 -
31/04:30pm - - - - - WSW 24 30 13 16 1014.1 1014.1 -
31/04:00pm - - - - - WSW 24 28 13 15 1014.0 1014.0 -
31/03:30pm - - - - - WSW 26 30 14 16 1013.9 1013.9 -
31/03:00pm - - - - - WSW 24 30 13 16 1014.1 1014.1 -
31/02:30pm - - - - - WSW 24 28 13 15 1014.3 1014.3 -
31/02:00pm - - - - - WSW 24 28 13 15 1014.5 1014.5 -
31/01:30pm - - - - - WSW 24 28 13 15 1014.9 1014.9 -
31/01:00pm - - - - - WSW 24 28 13 15 1015.2 1015.1 -
31/12:30pm - - - - - WSW 24 28 13 15 1015.4 1015.4 -
31/12:00pm - - - - - W 22 26 12 14 1015.6 1015.5 -
31/11:30am - - - - - W 24 28 13 15 1015.9 1015.9 -
31/11:00am - - - - - WSW 24 28 13 15 1016.2 1016.1 -
31/10:30am - - - - - WSW 22 26 12 14 1016.6 1016.6 -
31/10:00am - - - - - WSW 22 28 12 15 1016.7 1016.6 -
31/09:30am - - - - - WSW 24 28 13 15 1016.7 1016.7 -
31/09:00am - - - - - WSW 22 26 12 14 1016.6 1016.6 -
31/08:30am - - - - - WSW 24 30 13 16 1016.3 1016.3 -
31/08:00am - - - - - WSW 24 30 13 16 1015.9 1016.0 -
31/07:30am - - - - - WSW 24 28 13 15 1015.9 1015.9 -
31/07:00am - - - - - WSW 24 28 13 15 1015.8 1015.8 -
31/06:30am - - - - - WSW 22 26 12 14 1015.4 1015.4 -
31/06:00am - - - - - WSW 22 28 12 15 1015.2 1015.2 -
31/05:30am - - - - - WSW 22 26 12 14 1015.0 1015.0 -
31/05:00am - - - - - WSW 20 24 11 13 1014.9 1014.9 -
31/04:30am - - - - - WSW 20 24 11 13 1014.9 1014.9 -
31/04:00am - - - - - WSW 20 24 11 13 1014.8 1014.8 -
31/03:30am - - - - - WSW 20 24 11 13 1015.0 1015.0 -
31/03:00am - - - - - SW 22 26 12 14 1015.1 1015.0 -
31/02:30am - - - - - SW 24 28 13 15 1015.4 1015.4 -
31/02:00am - - - - - SW 22 26 12 14 1015.8 1015.7 -
31/01:30am - - - - - WSW 19 22 10 12 1016.0 1016.0 -
31/01:00am - - - - - WSW 17 20 9 11 1016.2 1016.0 -

Other Formats:

Comma delimited format used in spreadsheet applications
http://www.bom.gov.au/fwo/IDW60801/IDW60801.94207.axf

JavaScript Object Notation format (JSON) in row-major order
http://www.bom.gov.au/fwo/IDW60801/IDW60801.94207.json